createdAt,value
2019-02-21T00:02:21.511Z,7.70
2019-02-21T00:04:49.293Z,7.70
2019-02-21T00:07:17.086Z,7.70
2019-02-21T00:09:44.871Z,7.70
2019-02-21T00:12:12.719Z,7.70
2019-02-21T00:14:40.655Z,7.70
2019-02-21T00:17:08.515Z,7.70
2019-02-21T00:19:36.638Z,7.60
2019-02-21T00:22:04.402Z,7.60
2019-02-21T00:24:32.230Z,7.60
2019-02-21T00:27:00.041Z,7.50
2019-02-21T00:29:27.821Z,7.40
2019-02-21T00:31:55.598Z,7.50
2019-02-21T00:34:23.393Z,7.50
2019-02-21T00:36:51.149Z,7.40
2019-02-21T00:39:19.013Z,7.50
2019-02-21T00:41:46.854Z,7.50
2019-02-21T00:44:14.647Z,7.50
2019-02-21T00:46:42.414Z,7.60
2019-02-21T00:49:10.199Z,7.60
2019-02-21T00:51:38.037Z,7.70
2019-02-21T00:54:06.095Z,7.70
2019-02-21T00:56:33.875Z,7.70
2019-02-21T00:59:01.822Z,7.70
2019-02-21T01:01:29.666Z,7.80
2019-02-21T01:03:57.464Z,7.80
2019-02-21T01:06:25.217Z,7.90
2019-02-21T01:08:53.071Z,7.90
2019-02-21T01:11:21.143Z,7.90
2019-02-21T01:13:48.935Z,7.90
2019-02-21T01:16:16.712Z,7.90
2019-02-21T01:18:44.503Z,7.80
2019-02-21T01:21:12.344Z,7.80
2019-02-21T01:23:40.101Z,7.90
2019-02-21T01:26:07.888Z,7.90
2019-02-21T01:28:35.741Z,8.00
2019-02-21T01:31:03.530Z,7.90
2019-02-21T01:33:31.299Z,7.90
2019-02-21T01:35:59.073Z,8.00
2019-02-21T01:38:26.909Z,8.00
2019-02-21T01:40:54.787Z,8.00
2019-02-21T01:43:22.551Z,7.90
2019-02-21T01:45:50.414Z,7.90
2019-02-21T01:48:18.440Z,7.90
2019-02-21T01:50:46.231Z,7.90
2019-02-21T01:53:14.099Z,7.90
2019-02-21T01:55:41.873Z,7.90
2019-02-21T01:58:09.734Z,7.90
2019-02-21T02:00:37.695Z,7.90
2019-02-21T02:03:05.555Z,7.90
2019-02-21T02:05:33.720Z,7.90
2019-02-21T02:08:01.506Z,7.90
2019-02-21T02:10:30.226Z,7.80
2019-02-21T02:12:58.089Z,7.90
2019-02-21T02:15:25.871Z,7.90
2019-02-21T02:17:53.629Z,7.90
2019-02-21T02:20:21.478Z,7.90
2019-02-21T02:22:49.335Z,7.90
2019-02-21T02:25:17.118Z,7.90
2019-02-21T02:27:44.954Z,7.90
2019-02-21T02:30:12.848Z,7.90
2019-02-21T02:32:40.721Z,7.90
2019-02-21T02:35:08.673Z,7.90
2019-02-21T02:37:36.538Z,7.90
2019-02-21T02:40:04.369Z,7.90
2019-02-21T02:42:32.143Z,7.90
2019-02-21T02:44:59.922Z,7.90
2019-02-21T02:47:27.688Z,8.00
2019-02-21T02:49:55.487Z,7.90
2019-02-21T02:52:23.274Z,8.00
2019-02-21T02:54:51.214Z,8.00
2019-02-21T02:57:19.005Z,8.00
2019-02-21T02:59:46.852Z,8.00
2019-02-21T03:02:14.623Z,8.00
2019-02-21T03:04:42.483Z,8.00
2019-02-21T03:07:10.455Z,8.00
2019-02-21T03:09:38.243Z,8.00
2019-02-21T03:12:06.083Z,8.00
2019-02-21T03:14:33.913Z,8.00
2019-02-21T03:17:01.712Z,8.00
2019-02-21T03:19:29.566Z,7.90
2019-02-21T03:21:57.351Z,7.90
2019-02-21T03:24:25.206Z,8.00
2019-02-21T03:26:53.643Z,8.00
2019-02-21T03:29:21.443Z,8.00
2019-02-21T03:31:55.115Z,8.00
2019-02-21T03:34:18.843Z,8.00
2019-02-21T03:36:46.704Z,8.00
2019-02-21T03:39:14.556Z,8.00
2019-02-21T03:41:42.439Z,8.10
2019-02-21T03:44:10.227Z,8.00
2019-02-21T03:46:38.042Z,8.00
2019-02-21T03:49:05.919Z,8.00
2019-02-21T03:51:33.825Z,8.00
2019-02-21T03:54:01.646Z,8.00
2019-02-21T03:56:29.554Z,7.90
2019-02-21T03:58:57.499Z,8.00
2019-02-21T04:01:25.467Z,7.90
2019-02-21T04:03:53.233Z,7.90
2019-02-21T04:06:21.185Z,7.90
2019-02-21T04:08:49.102Z,7.90
2019-02-21T04:11:16.891Z,7.90
2019-02-21T04:13:44.660Z,7.90
2019-02-21T04:16:12.486Z,7.90
2019-02-21T04:18:40.327Z,7.80
2019-02-21T04:21:08.325Z,7.80
2019-02-21T04:23:36.269Z,7.80
2019-02-21T04:26:04.389Z,7.80
2019-02-21T04:28:32.157Z,7.80
2019-02-21T04:30:59.943Z,7.80
2019-02-21T04:33:27.828Z,7.80
2019-02-21T04:35:55.632Z,7.80
2019-02-21T04:38:23.462Z,7.80
2019-02-21T04:40:51.234Z,7.70
2019-02-21T04:43:19.140Z,7.70
2019-02-21T04:45:47.160Z,7.80
2019-02-21T04:48:14.958Z,7.70
2019-02-21T04:50:42.800Z,7.70
2019-02-21T04:53:10.684Z,7.70
2019-02-21T04:55:38.533Z,7.70
2019-02-21T04:58:06.333Z,7.70
2019-02-21T05:00:34.251Z,7.70
2019-02-21T05:03:02.037Z,7.60
2019-02-21T05:05:29.897Z,7.60
2019-02-21T05:07:57.693Z,7.60
2019-02-21T05:10:25.618Z,7.60
2019-02-21T05:12:53.512Z,7.50
2019-02-21T05:15:21.387Z,7.50
2019-02-21T05:17:49.260Z,7.50
2019-02-21T05:20:17.017Z,7.50
2019-02-21T05:22:45.144Z,7.50
2019-02-21T05:25:12.952Z,7.50
2019-02-21T05:27:47.069Z,7.50
2019-02-21T05:30:18.523Z,7.50
2019-02-21T05:33:01.555Z,7.50
2019-02-21T05:35:36.396Z,7.50
2019-02-21T05:38:14.513Z,7.40
2019-02-21T05:41:00.578Z,7.40
2019-02-21T05:43:42.919Z,7.40
2019-02-21T05:46:21.427Z,7.30
2019-02-21T05:48:56.365Z,7.30
2019-02-21T05:51:32.605Z,7.30
2019-02-21T05:54:08.285Z,7.40
2019-02-21T05:56:53.048Z,7.40
2019-02-21T05:59:43.314Z,7.30
2019-02-21T06:02:21.261Z,7.30
2019-02-21T06:05:03.738Z,7.30
2019-02-21T06:07:53.983Z,7.30
2019-02-21T06:10:38.117Z,7.30
2019-02-21T06:13:17.787Z,7.40
2019-02-21T06:15:59.097Z,7.30
2019-02-21T06:18:38.756Z,7.30
2019-02-21T06:21:14.196Z,7.40
2019-02-21T06:24:02.560Z,7.40
2019-02-21T06:26:41.462Z,7.50
2019-02-21T06:29:22.467Z,7.50
2019-02-21T06:31:49.567Z,7.50
2019-02-21T06:34:17.451Z,7.50
2019-02-21T06:36:45.305Z,7.50
2019-02-21T06:39:13.217Z,7.40
2019-02-21T06:41:42.821Z,7.50
2019-02-21T06:44:10.874Z,7.50
2019-02-21T06:46:38.695Z,7.50
2019-02-21T06:49:06.494Z,7.60
2019-02-21T06:51:34.259Z,7.60
2019-02-21T06:54:02.432Z,7.70
2019-02-21T06:56:30.291Z,7.80
2019-02-21T06:58:58.254Z,7.80
2019-02-21T07:01:29.389Z,7.90
2019-02-21T07:03:55.943Z,8.00
2019-02-21T07:06:31.582Z,8.10
2019-02-21T07:08:54.230Z,8.10
2019-02-21T07:11:22.199Z,8.10
2019-02-21T07:13:50.095Z,8.20
2019-02-21T07:16:17.929Z,8.20
2019-02-21T07:18:45.809Z,8.30
2019-02-21T07:21:13.572Z,8.30
2019-02-21T07:23:43.675Z,8.30
2019-02-21T07:26:13.939Z,8.40
2019-02-21T07:28:41.870Z,8.40
2019-02-21T07:31:09.744Z,8.40
2019-02-21T07:33:37.522Z,8.40
2019-02-21T07:36:05.290Z,8.30
2019-02-21T07:38:33.070Z,8.30
2019-02-21T07:41:00.924Z,8.30
2019-02-21T07:43:28.978Z,8.30
2019-02-21T07:45:56.923Z,8.30
2019-02-21T07:48:24.744Z,8.40
2019-02-21T07:50:52.598Z,8.40
2019-02-21T07:53:20.466Z,8.40
2019-02-21T07:55:48.328Z,8.40
2019-02-21T07:58:16.421Z,8.40
2019-02-21T08:00:44.273Z,8.40
2019-02-21T08:03:12.341Z,8.50
2019-02-21T08:05:40.118Z,8.50
2019-02-21T08:08:09.316Z,8.50
2019-02-21T08:10:37.406Z,8.50
2019-02-21T08:13:05.217Z,8.60
2019-02-21T08:15:33.116Z,8.50
2019-02-21T08:18:01.236Z,8.50
2019-02-21T08:20:33.969Z,8.50
2019-02-21T08:22:58.638Z,8.50
2019-02-21T08:25:26.433Z,8.40
2019-02-21T08:27:54.295Z,8.40
2019-02-21T08:30:22.166Z,8.40
2019-02-21T08:33:07.831Z,8.40
2019-02-21T08:35:35.615Z,8.30
2019-02-21T08:38:03.551Z,8.30
2019-02-21T08:40:31.423Z,8.20
2019-02-21T08:42:59.185Z,8.20
2019-02-21T08:45:27.088Z,8.20
2019-02-21T08:47:54.854Z,8.30
2019-02-21T08:50:22.783Z,8.30
2019-02-21T08:52:50.563Z,8.30
2019-02-21T08:55:18.350Z,8.50
2019-02-21T08:57:46.201Z,8.60
2019-02-21T09:00:14.259Z,8.70
2019-02-21T09:02:42.229Z,8.70
2019-02-21T09:05:10.445Z,8.80
2019-02-21T09:07:38.463Z,8.80
2019-02-21T09:10:07.215Z,8.80
2019-02-21T09:12:35.215Z,8.80
2019-02-21T09:15:03.217Z,8.70
2019-02-21T09:17:32.206Z,8.70
2019-02-21T09:20:00.323Z,8.60
2019-02-21T09:22:28.095Z,8.50
2019-02-21T09:24:55.878Z,8.50
2019-02-21T09:27:23.674Z,8.50
2019-02-21T09:29:51.471Z,8.50
2019-02-21T09:32:19.582Z,8.50
2019-02-21T09:34:50.247Z,8.70
2019-02-21T09:37:17.396Z,8.80
2019-02-21T09:40:04.437Z,8.90
2019-02-21T09:42:32.197Z,9.00
2019-02-21T09:44:59.978Z,9.20
2019-02-21T09:47:27.738Z,9.30
2019-02-21T09:49:56.503Z,9.40
2019-02-21T09:52:24.479Z,9.40
2019-02-21T09:54:52.543Z,9.50
2019-02-21T09:57:20.305Z,9.50
2019-02-21T09:59:48.263Z,9.30
2019-02-21T10:02:16.041Z,9.20
2019-02-21T10:04:43.912Z,9.10
2019-02-21T10:07:11.694Z,9.10
2019-02-21T10:09:39.465Z,9.20
2019-02-21T10:12:07.319Z,9.30
2019-02-21T10:14:35.086Z,9.40
2019-02-21T10:17:02.891Z,9.50
2019-02-21T10:19:30.762Z,9.50
2019-02-21T10:21:58.608Z,9.60
2019-02-21T10:24:26.464Z,9.60
2019-02-21T10:26:54.255Z,9.50
2019-02-21T10:29:22.085Z,9.50
2019-02-21T10:31:49.967Z,9.40
2019-02-21T10:34:21.578Z,9.50
2019-02-21T10:36:48.651Z,9.60
2019-02-21T10:39:16.425Z,9.60
2019-02-21T10:41:44.305Z,9.60
2019-02-21T10:44:12.061Z,9.60
2019-02-21T10:46:39.929Z,9.60
2019-02-21T10:49:07.720Z,9.60
2019-02-21T10:51:35.511Z,9.60
2019-02-21T10:54:03.378Z,9.60
2019-02-21T10:56:31.198Z,9.60
2019-02-21T10:58:59.048Z,9.70
2019-02-21T11:01:26.837Z,9.90
2019-02-21T11:03:54.670Z,9.90
2019-02-21T11:06:22.591Z,10.00
2019-02-21T11:08:50.361Z,10.20
2019-02-21T11:11:18.199Z,10.30
2019-02-21T11:13:45.983Z,10.40
2019-02-21T11:16:13.786Z,10.40
2019-02-21T11:18:41.562Z,10.30
2019-02-21T11:21:09.353Z,10.20
2019-02-21T11:23:37.203Z,10.20
2019-02-21T11:26:05.106Z,10.20
2019-02-21T11:28:32.936Z,10.20
2019-02-21T11:31:00.697Z,10.20
2019-02-21T11:33:28.592Z,10.40
2019-02-21T11:35:56.437Z,10.70
2019-02-21T11:38:24.233Z,10.80
2019-02-21T11:40:52.002Z,10.90
2019-02-21T11:43:19.794Z,11.10
2019-02-21T11:45:55.110Z,11.10
2019-02-21T11:48:17.433Z,11.10
2019-02-21T11:50:45.207Z,11.00
2019-02-21T11:53:13.090Z,11.00
2019-02-21T11:55:40.906Z,11.00
2019-02-21T11:58:08.797Z,11.00
2019-02-21T12:00:38.317Z,11.00
2019-02-21T12:03:06.114Z,11.10
2019-02-21T12:05:33.899Z,11.30
2019-02-21T12:08:01.822Z,11.40
2019-02-21T12:10:29.602Z,11.50
2019-02-21T12:15:24.871Z,11.60
2019-02-21T12:17:52.754Z,11.60
2019-02-21T12:20:20.795Z,11.60
2019-02-21T12:22:48.581Z,11.70
2019-02-21T12:25:16.367Z,11.60
2019-02-21T12:27:44.151Z,11.60
2019-02-21T12:30:13.228Z,11.70
2019-02-21T12:32:41.005Z,11.60
2019-02-21T12:35:09.012Z,11.60
2019-02-21T12:37:36.807Z,11.70
2019-02-21T12:40:05.095Z,11.60
2019-02-21T12:42:32.892Z,11.50
2019-02-21T12:45:00.732Z,11.40
2019-02-21T12:47:28.588Z,11.40
2019-02-21T12:49:56.526Z,11.30
2019-02-21T12:52:24.454Z,11.30
2019-02-21T12:54:52.223Z,11.40
2019-02-21T12:57:20.028Z,11.40
2019-02-21T12:59:47.902Z,11.40
2019-02-21T13:02:15.706Z,11.30
2019-02-21T13:04:43.555Z,11.20
2019-02-21T13:07:11.390Z,11.20
2019-02-21T13:09:39.211Z,11.20
2019-02-21T13:12:07.105Z,11.30
2019-02-21T13:14:34.923Z,11.20
2019-02-21T13:17:02.723Z,11.20
2019-02-21T13:19:30.499Z,11.20
2019-02-21T13:21:58.282Z,11.20
2019-02-21T13:24:26.082Z,11.20
2019-02-21T13:26:53.972Z,11.30
2019-02-21T13:29:21.843Z,11.30
2019-02-21T13:31:50.254Z,11.40
2019-02-21T13:34:18.074Z,11.50
2019-02-21T13:36:45.922Z,11.50
2019-02-21T13:39:13.826Z,11.50
2019-02-21T13:41:41.663Z,11.40
2019-02-21T13:44:09.556Z,11.40
2019-02-21T13:46:40.892Z,11.30
2019-02-21T13:49:06.931Z,11.30
2019-02-21T13:51:34.734Z,11.30
2019-02-21T13:54:02.551Z,11.20
2019-02-21T13:56:30.407Z,11.10
2019-02-21T13:58:58.198Z,11.10
2019-02-21T14:01:26.033Z,11.10
2019-02-21T14:03:56.577Z,11.00
2019-02-21T14:06:23.823Z,11.00
2019-02-21T14:08:51.610Z,11.00
2019-02-21T14:11:19.394Z,11.00
2019-02-21T14:13:47.238Z,11.00
2019-02-21T14:16:15.078Z,11.00
2019-02-21T14:18:42.975Z,11.00
2019-02-21T14:21:10.794Z,11.00
2019-02-21T14:23:38.602Z,11.00
2019-02-21T14:26:06.388Z,10.90
2019-02-21T14:28:34.175Z,10.90
2019-02-21T14:31:01.951Z,10.80
2019-02-21T14:33:29.755Z,10.70
2019-02-21T14:35:57.879Z,10.50
2019-02-21T14:38:28.255Z,10.50
2019-02-21T14:40:55.269Z,10.40
2019-02-21T14:43:23.055Z,10.20
2019-02-21T14:45:50.825Z,10.10
2019-02-21T14:48:18.622Z,10.00
2019-02-21T14:50:46.475Z,10.00
2019-02-21T14:53:14.287Z,10.00
2019-02-21T14:55:42.067Z,10.00
2019-02-21T15:00:37.601Z,10.10
2019-02-21T15:03:05.500Z,10.10
2019-02-21T15:05:33.281Z,10.20
2019-02-21T15:08:01.083Z,10.10
2019-02-21T15:10:28.895Z,10.20
2019-02-21T15:12:56.830Z,10.20
2019-02-21T15:15:24.762Z,10.20
2019-02-21T15:17:52.588Z,10.20
2019-02-21T15:20:20.474Z,10.20
2019-02-21T15:22:48.330Z,10.20
2019-02-21T15:25:16.211Z,10.30
2019-02-21T15:27:44.169Z,10.20
2019-02-21T15:30:13.027Z,10.30
2019-02-21T15:32:40.797Z,10.20
2019-02-21T15:35:08.667Z,10.20
2019-02-21T15:37:36.439Z,10.20
2019-02-21T15:40:04.702Z,10.20
2019-02-21T15:42:32.462Z,10.20
2019-02-21T15:45:00.444Z,10.20
2019-02-21T15:47:28.224Z,10.20
2019-02-21T15:49:56.366Z,10.20
2019-02-21T15:52:24.169Z,10.30
2019-02-21T15:54:52.221Z,10.30
2019-02-21T15:57:20.007Z,10.30
2019-02-21T15:59:47.811Z,10.30
2019-02-21T16:02:15.583Z,10.30
2019-02-21T16:04:43.397Z,10.30
2019-02-21T16:07:11.199Z,10.30
2019-02-21T16:09:38.987Z,10.30
2019-02-21T16:12:07.280Z,10.30
2019-02-21T16:14:37.704Z,10.30
2019-02-21T16:17:05.401Z,10.30
2019-02-21T16:19:33.878Z,10.30
2019-02-21T16:22:01.740Z,10.30
2019-02-21T16:24:29.604Z,10.30
2019-02-21T16:26:57.392Z,10.30
2019-02-21T16:29:25.974Z,10.30
2019-02-21T16:31:54.202Z,10.30
2019-02-21T16:34:22.002Z,10.40
2019-02-21T16:36:49.777Z,10.40
2019-02-21T16:39:17.755Z,10.30
2019-02-21T16:41:45.610Z,10.30
2019-02-21T16:44:13.455Z,10.30
2019-02-21T16:46:41.506Z,10.30
2019-02-21T16:49:09.602Z,10.30
2019-02-21T16:51:37.510Z,10.40
2019-02-21T16:54:05.997Z,10.30
2019-02-21T16:56:33.871Z,10.30
2019-02-21T16:59:02.003Z,10.30
2019-02-21T17:01:30.078Z,10.30
2019-02-21T17:03:58.042Z,10.30
2019-02-21T17:06:25.948Z,10.30
2019-02-21T17:08:53.816Z,10.30
2019-02-21T17:11:21.683Z,10.30
2019-02-21T17:13:49.623Z,10.30
2019-02-21T17:16:17.413Z,10.40
2019-02-21T17:18:45.199Z,10.40
2019-02-21T17:21:13.306Z,10.40
2019-02-21T17:23:41.090Z,10.40
2019-02-21T17:26:08.970Z,10.40
2019-02-21T17:28:36.753Z,10.40
2019-02-21T17:31:04.911Z,10.40
2019-02-21T17:33:32.978Z,10.40
2019-02-21T17:36:00.799Z,10.30
2019-02-21T17:38:28.575Z,10.40
2019-02-21T17:40:56.393Z,10.40
2019-02-21T17:43:24.259Z,10.50
2019-02-21T17:45:52.203Z,10.60
2019-02-21T17:48:20.641Z,10.60
2019-02-21T17:50:48.566Z,10.60
2019-02-21T17:53:16.351Z,10.60
2019-02-21T17:55:44.192Z,10.60
2019-02-21T17:58:12.071Z,10.60
2019-02-21T18:00:40.117Z,10.50
2019-02-21T18:03:08.574Z,10.30
2019-02-21T18:05:36.397Z,10.10
2019-02-21T18:08:04.522Z,9.90
2019-02-21T18:10:32.326Z,9.70
2019-02-21T18:13:00.178Z,9.60
2019-02-21T18:15:28.350Z,9.40
2019-02-21T18:17:56.217Z,9.30
2019-02-21T18:20:24.107Z,9.30
2019-02-21T18:22:51.967Z,9.20
2019-02-21T18:25:21.727Z,9.20
2019-02-21T18:27:49.522Z,9.10
2019-02-21T18:30:17.433Z,9.10
2019-02-21T18:32:45.368Z,9.00
2019-02-21T18:35:13.534Z,9.00
2019-02-21T18:37:47.378Z,9.00
2019-02-21T18:40:17.199Z,9.00
2019-02-21T18:42:41.624Z,9.00
2019-02-21T18:45:09.562Z,9.00
2019-02-21T18:47:37.464Z,8.90
2019-02-21T18:50:05.859Z,8.90
2019-02-21T18:52:33.721Z,8.90
2019-02-21T18:55:01.606Z,8.80
2019-02-21T18:57:29.463Z,8.80
2019-02-21T18:59:57.362Z,8.80
2019-02-21T19:02:25.190Z,8.90
2019-02-21T19:04:53.091Z,8.80
2019-02-21T19:07:20.962Z,8.80
2019-02-21T19:09:48.814Z,8.80
2019-02-21T19:12:16.789Z,8.90
2019-02-21T19:14:44.634Z,8.90
2019-02-21T19:17:12.527Z,8.80
2019-02-21T19:19:40.387Z,8.80
2019-02-21T19:22:08.255Z,8.80
2019-02-21T19:24:37.097Z,8.80
2019-02-21T19:27:05.391Z,8.80
2019-02-21T19:29:33.178Z,8.80
2019-02-21T19:32:01.209Z,8.80
2019-02-21T19:34:29.007Z,8.80
2019-02-21T19:36:57.247Z,8.80
2019-02-21T19:39:25.353Z,8.80
2019-02-21T19:41:53.470Z,8.80
2019-02-21T19:44:21.304Z,8.80
2019-02-21T19:46:49.180Z,8.80
2019-02-21T19:49:16.950Z,8.80
2019-02-21T19:51:44.805Z,8.80
2019-02-21T19:54:12.665Z,8.80
2019-02-21T19:56:40.630Z,8.80
2019-02-21T19:59:08.579Z,8.80
2019-02-21T20:01:36.381Z,8.70
2019-02-21T20:04:04.283Z,8.80
2019-02-21T20:06:32.601Z,8.80
2019-02-21T20:09:00.477Z,8.70
2019-02-21T20:11:28.365Z,8.70
2019-02-21T20:13:56.234Z,8.70
2019-02-21T20:16:24.521Z,8.70
2019-02-21T20:18:52.355Z,8.70
2019-02-21T20:21:20.250Z,8.70
2019-02-21T20:23:48.093Z,8.70
2019-02-21T20:26:18.523Z,8.80
2019-02-21T20:28:45.514Z,8.80
2019-02-21T20:31:13.368Z,8.80
2019-02-21T20:33:41.280Z,8.80
2019-02-21T20:36:09.103Z,8.80
2019-02-21T20:38:37.027Z,8.80
2019-02-21T20:41:04.824Z,8.80
2019-02-21T20:43:32.677Z,8.80
2019-02-21T20:46:00.453Z,8.80
2019-02-21T20:48:30.519Z,8.80
2019-02-21T20:50:58.108Z,8.80
2019-02-21T20:53:26.185Z,8.80
2019-02-21T20:55:54.086Z,8.80
2019-02-21T20:58:21.945Z,8.80
2019-02-21T21:00:49.786Z,8.80
2019-02-21T21:03:18.338Z,8.80
2019-02-21T21:05:46.406Z,8.80
2019-02-21T21:08:14.234Z,8.80
2019-02-21T21:10:42.099Z,8.80
2019-02-21T21:13:09.978Z,8.80
2019-02-21T21:15:38.090Z,8.80
2019-02-21T21:18:05.945Z,8.80
2019-02-21T21:20:33.755Z,8.80
2019-02-21T21:23:01.656Z,8.80
2019-02-21T21:25:31.820Z,8.80
2019-02-21T21:27:59.372Z,8.80
2019-02-21T21:30:27.462Z,8.80
2019-02-21T21:32:55.268Z,8.80
2019-02-21T21:35:23.129Z,8.80
2019-02-21T21:37:51.294Z,8.80
2019-02-21T21:40:19.462Z,8.80
2019-02-21T21:42:47.337Z,8.80
2019-02-21T21:45:15.433Z,8.80
2019-02-21T21:47:43.298Z,8.80
2019-02-21T21:50:12.191Z,8.80
2019-02-21T21:52:40.151Z,8.90
2019-02-21T21:55:08.278Z,8.90
2019-02-21T21:57:36.082Z,8.80
2019-02-21T22:00:04.934Z,8.80
2019-02-21T22:02:33.246Z,8.80
2019-02-21T22:05:01.106Z,8.80
2019-02-21T22:07:28.885Z,8.80
2019-02-21T22:09:56.743Z,8.80
2019-02-21T22:12:24.626Z,8.80
2019-02-21T22:14:52.623Z,8.90
2019-02-21T22:17:20.467Z,8.80
2019-02-21T22:19:48.312Z,8.90
2019-02-21T22:22:16.207Z,8.80
2019-02-21T22:24:44.050Z,8.80
2019-02-21T22:27:11.933Z,8.80
2019-02-21T22:29:39.779Z,8.80
2019-02-21T22:32:07.713Z,8.80
2019-02-21T22:34:35.595Z,8.80
2019-02-21T22:37:03.406Z,8.80
2019-02-21T22:39:31.241Z,8.70
2019-02-21T22:41:59.146Z,8.80
2019-02-21T22:44:26.983Z,8.70
2019-02-21T22:46:54.767Z,8.80
2019-02-21T22:49:22.884Z,8.70
2019-02-21T22:51:50.701Z,8.70
2019-02-21T22:54:18.549Z,8.80
2019-02-21T22:56:46.591Z,8.80
2019-02-21T22:59:14.659Z,8.80
2019-02-21T23:01:43.621Z,8.80
2019-02-21T23:04:22.937Z,8.80
2019-02-21T23:07:11.449Z,8.80
2019-02-21T23:09:39.513Z,8.80
2019-02-21T23:12:07.334Z,8.80
2019-02-21T23:14:35.173Z,8.80
2019-02-21T23:17:03.450Z,8.80
2019-02-21T23:19:31.977Z,8.80
2019-02-21T23:21:59.876Z,8.80
2019-02-21T23:24:27.712Z,8.80
2019-02-21T23:26:55.683Z,8.80
2019-02-21T23:29:23.572Z,8.80
2019-02-21T23:31:51.689Z,8.80
2019-02-21T23:34:27.303Z,8.80
2019-02-21T23:36:55.121Z,8.70
2019-02-21T23:39:22.966Z,8.70
2019-02-21T23:41:50.863Z,8.70
2019-02-21T23:44:18.694Z,8.70
2019-02-21T23:46:47.259Z,8.70
2019-02-21T23:49:15.065Z,8.70
2019-02-21T23:51:42.942Z,8.70
2019-02-21T23:54:10.790Z,8.70
2019-02-21T23:56:39.037Z,8.70
2019-02-21T23:59:06.835Z,8.60
